Terminal Aerodrome Forecast
Issued by NWS Wakefield, VA

Home | Current Version | Previous Version | Text Only | Print | Product List | Glossary On
Versions: 1 2 3 4 5 6 7 8 9 10 11 12 13 14 15 16 17 18 19 20
000
FTUS41 KAKQ 282320
TAFSBY
TAF
KSBY 282320Z 2900/2924 12007KT P6SM SCT035 BKN150
     FM290100 VRB03KT P6SM SCT050 BKN250
     FM290900 22003KT 3SM BR SCT004 BKN035
     FM291300 22005KT P6SM BKN040
     FM291600 19008KT P6SM SCT045 BKN250=

USA.gov is the U.S. government's official web portal to all federal, state and local government web resources and services.